Flight Track Log - Related Links

Times and Time Zones

All times are in EDT time to prevent confusion due to time zone crossing. See the EJA829P flight status page for this flight to view local times or setup timezone preferences in your user account.

Time Position Orientation Groundspeed Altitude Reporting Facility
EDT Latitude Longitude Course Direction KTS MPH feet Rate Location/Type
Mon 03:28:43 PM 24.7869 -81.0128 North 308 354 4,600  Level Miami Center
Mon 03:29:00 PM 25.1392 -80.9661 North  Level FlightAware Approximate
Mon 03:29:43 PM 24.8058 -80.9333 75° East 247 284 6,100  Level Miami Center
Mon 03:30:00 PM 25.2277 -80.9572 North  Level FlightAware Approximate
Mon 03:30:43 PM 24.8250 -80.8447 77° East 258 297 9,600  Level Miami Center
Mon 03:31:43 PM 24.8442 -80.7514 77° East 286 329 12,500 2,900 Climbing Miami Center
Mon 03:32:43 PM 24.9006 -80.6731 52° Northeast 337 388 15,400 2,950 Climbing Miami Center
Mon 03:33:43 PM 24.9711 -80.6111 39° Northeast 328 377 18,400 1,800 Climbing Miami Center
Mon 03:34:43 PM 25.0628 -80.6161 357° North 299 344 19,000 300 Climbing Miami Center
Mon 03:35:43 PM 25.1672 -80.6194 358° North 334 384 19,000  Level Miami Center
Mon 03:36:43 PM 25.2672 -80.6272 356° North 346 398 19,000  Level Miami Center
Mon 03:37:43 PM 25.3656 -80.6300 359° North 357 411 19,000  Level Miami Center
Mon 03:38:43 PM 25.4678 -80.6333 358° North 357 411 19,000  Level Miami Center
Mon 03:39:43 PM 25.5761 -80.6389 357° North 357 411 19,000  Level Miami Center
Mon 03:40:43 PM 25.6639 -80.6442 357° North 357 411 19,000  Level Miami Center
Mon 03:41:43 PM 25.7764 -80.6500 357° North 357 411 19,000  Level Miami Center
Mon 03:42:43 PM 25.8767 -80.6531 358° North 357 411 19,000  Level Miami Center
Mon 03:43:43 PM 25.9725 -80.6561 358° North 357 411 19,000  Level Miami Center
Mon 03:44:55 PM 26.0728 -80.6617 357° North 351 404 19,000  Level Miami Center
Mon 03:45:55 PM 26.1917 -80.6653 358° North 351 404 19,000 -150 Level Miami Center
Mon 03:46:55 PM 26.2747 -80.6867 347° North 345 397 18,700 -950 Descending Miami Center
Mon 03:47:55 PM 26.3803 -80.7156 346° North 345 397 17,100 -1,500 Descending Miami Center
Mon 03:48:55 PM 26.4703 -80.7114 North 351 404 15,700 -1,550 Descending Miami Center
Mon 03:49:55 PM 26.5769 -80.7056 North 345 397 14,000 -1,250 Descending Miami Center
Mon 03:50:55 PM 26.6564 -80.7014 North 350 403 13,200 -1,000 Descending Miami Center
Mon 03:51:55 PM 26.7756 -80.6936 North 350 403 12,000 -1,050 Descending Miami Center
Mon 03:52:55 PM 26.8633 -80.6894 North 355 409 11,100 -500 Descending Miami Center
Mon 03:53:55 PM 26.9681 -80.6858 North 341 392 11,000 -50 Descending Miami Center
Mon 03:54:55 PM 27.0619 -80.6797 North 341 392 11,000 -100 Level Miami Center
Mon 03:55:55 PM 27.1458 -80.6753 North 336 387 10,800 -600 Descending Miami Center
Mon 03:56:55 PM 27.2294 -80.6689 North 313 360 9,800 -1,100 Descending Miami Center
Mon 03:57:55 PM 27.3153 -80.6600 North 277 319 8,600 -1,182 Descending Miami Center
Mon 03:59:07 PM 27.3733 -80.5964 44° Northeast 267 307 7,200 -1,682 Descending Miami Center
Mon 04:00:07 PM 27.4314 -80.5258 47° Northeast 274 315 4,900 -2,100 Descending Miami Center
Mon 04:01:07 PM 27.4872 -80.4597 46° Northeast 274 315 3,000 -1,050 Descending Miami Center
Mon 04:02:07 PM 27.5367 -80.4050 44° Northeast 255 293 2,800 -600 Descending Miami Center
Mon 04:03:07 PM 27.5875 -80.3783 25° Northeast 224 258 1,800 -950 Descending Miami Center
Mon 04:04:07 PM 27.6231 -80.3772 North 165 190 900 -800 Descending Miami Center
Mon 04:05:07 PM 27.6475 -80.4014 319° Northwest 124 143 200 -700 Descending Miami Center

Login

Don't have an account? Register now (free) for customized features, flight alerts, and more!